Atlant Svenja — V7LK2 — position and weather

sailwx.info

Track history (hours):
 
Tides and Currents Weather Stations Pressure Air Temp Water Temp Dewpoint Dewpoint Depression Visibility Wind Speed Wind Dir Waves Ship Positions

Atlant Svenja

Last reported at 2018-Jul-17 03:33 UTC. Time now 2018-Aug-15 02:58 UTC.
Position N 39°54' E 025°56'.
Warning: this ship's position is 28 days out of date.

Length 107 m; draft 7.1 m.

Type: Cargo ship. MMSI: 538002759.

Date/timePositionNaut miles runAvg speedWind from/ knotsBaromVisibWave heightAir tempDewpointWater temp
2018-Jul-17 03:33N 39°54' E 025°56'1 8.6
2018-Jul-17 03:27N 39°53' E 025°56'4 8.3
2018-Jul-17 02:55N 39°50' E 025°53'169 9.8
2018-Jul-16 09:39N 37°20' E 024°12'3 9.3
2018-Jul-16 09:21N 37°17' E 024°10'3 9.7
2018-Jul-16 09:00N 37°15' E 024°07'5 9.6
2018-Jul-16 08:30N 37°11' E 024°03'5 9.8
2018-Jul-16 07:59N 37°07' E 023°59'5 9.8
2018-Jul-16 07:30N 37°04' E 023°56'2210.0
2018-Jul-16 05:17N 36°46' E 023°38'3 9.7
2018-Jul-16 05:00N 36°44' E 023°36'  
2018-Jul-13 10:59N 44°25' E 014°12'510.2
2018-Jul-13 10:30N 44°30' E 014°11'510.3
2018-Jul-13 10:00N 44°35' E 014°09'510.2
2018-Jul-13 09:30N 44°40' E 014°07'510.1
2018-Jul-13 09:00N 44°45' E 014°07'510.3
2018-Jul-13 08:30N 44°50' E 014°09'610.4
2018-Jul-13 07:56N 44°55' E 014°11'1610.3
2018-Jul-13 06:25N 45°11' E 014°16'410.1
2018-Jul-13 06:00N 45°14' E 014°20'  
Track history (hours):
 
Tides and Currents Weather Stations Pressure Air Temp Water Temp Dewpoint Dewpoint Depression Visibility Wind Speed Wind Dir Waves Ship Positions

Atlant Svenja

Last reported at 2018-Jul-17 03:33 UTC. Time now 2018-Aug-15 02:58 UTC.
Position N 39°54' E 025°56'.
Warning: this ship's position is 28 days out of date.

Length 107 m; draft 7.1 m.

Type: Cargo ship. MMSI: 538002759.

Date/timePositionNaut miles runAvg speedWind from/ knotsBaromVisibWave heightAir tempDewpointWater temp
2018-Jul-17 03:33N 39°54' E 025°56'1 8.6
2018-Jul-17 03:27N 39°53' E 025°56'4 8.3
2018-Jul-17 02:55N 39°50' E 025°53'169 9.8
2018-Jul-16 09:39N 37°20' E 024°12'3 9.3
2018-Jul-16 09:21N 37°17' E 024°10'3 9.7
2018-Jul-16 09:00N 37°15' E 024°07'5 9.6
2018-Jul-16 08:30N 37°11' E 024°03'5 9.8
2018-Jul-16 07:59N 37°07' E 023°59'5 9.8
2018-Jul-16 07:30N 37°04' E 023°56'2210.0
2018-Jul-16 05:17N 36°46' E 023°38'3 9.7
2018-Jul-16 05:00N 36°44' E 023°36'  
2018-Jul-13 10:59N 44°25' E 014°12'510.2
2018-Jul-13 10:30N 44°30' E 014°11'510.3
2018-Jul-13 10:00N 44°35' E 014°09'510.2
2018-Jul-13 09:30N 44°40' E 014°07'510.1
2018-Jul-13 09:00N 44°45' E 014°07'510.3
2018-Jul-13 08:30N 44°50' E 014°09'610.4
2018-Jul-13 07:56N 44°55' E 014°11'1610.3
2018-Jul-13 06:25N 45°11' E 014°16'410.1
2018-Jul-13 06:00N 45°14' E 014°20'  

Dump ship's entire track history